Time;durP1;ratioP1;P1;durP2;ratioP2;P2;SDS_P1;SDS_P2;PMS_P1;PMS_P2;Temp;Humidity;BMP_temperature;BMP_pressure;BME280_temperature;BME280_humidity;BME280_pressure;Samples;Min_cycle;Max_cycle;Signal;HPM_P1;HPM_P2
2023/11/27 00:00:40;;;;;;;0.40;0.40;;;;;;;7.66;100.00;100048.22;5035177;28;20055;-83
2023/11/27 00:03:06;;;;;;;0.40;0.40;;;;;;;7.62;100.00;100043.41;5020725;28;20044;-83
2023/11/27 00:05:32;;;;;;;0.40;0.40;;;;;;;7.59;100.00;100044.56;5022391;28;20032;-83
2023/11/27 00:07:57;;;;;;;0.40;0.40;;;;;;;7.59;100.00;100043.75;5038866;28;20090;-82
2023/11/27 00:10:26;;;;;;;0.40;0.40;;;;;;;7.66;100.00;100042.06;5023038;28;20114;-83
2023/11/27 00:12:58;;;;;;;0.45;0.45;;;;;;;7.69;100.00;100037.19;5038718;28;20410;-84
2023/11/27 00:15:25;;;;;;;0.40;0.40;;;;;;;7.71;100.00;100027.13;5055373;28;20021;-83
2023/11/27 00:17:50;;;;;;;0.40;0.40;;;;;;;7.68;100.00;100032.84;5038879;28;20033;-83
2023/11/27 00:20:16;;;;;;;0.40;0.40;;;;;;;7.71;100.00;100032.50;5022105;28;20029;-83
2023/11/27 00:22:42;;;;;;;0.40;0.40;;;;;;;7.74;100.00;100036.66;5054963;28;20464;-83
2023/11/27 00:25:08;;;;;;;0.50;0.50;;;;;;;7.72;100.00;100028.78;5038231;28;20086;-83
2023/11/27 00:27:34;;;;;;;0.40;0.40;;;;;;;7.72;100.00;100033.31;5038559;28;20036;-83
2023/11/27 00:30:00;;;;;;;0.40;0.40;;;;;;;7.62;100.00;100025.53;5021413;28;20051;-83
2023/11/27 00:32:25;;;;;;;0.40;0.40;;;;;;;7.54;100.00;100024.69;5021957;28;20029;-83
2023/11/27 00:34:51;;;;;;;0.50;0.50;;;;;;;7.57;100.00;100029.69;5021954;28;20036;-83
2023/11/27 00:37:20;;;;;;;0.40;0.40;;;;;;;7.55;100.00;100019.19;5038442;28;20037;-83
2023/11/27 00:39:46;;;;;;;0.40;0.40;;;;;;;7.53;100.00;100025.72;5037878;28;20040;-84
2023/11/27 00:42:11;;;;;;;0.40;0.40;;;;;;;7.52;100.00;100019.53;5038085;28;20033;-83
2023/11/27 00:44:37;;;;;;;0.40;0.40;;;;;;;7.49;100.00;100006.53;5037817;28;20033;-83
2023/11/27 00:47:03;;;;;;;0.40;0.40;;;;;;;7.56;100.00;100012.81;5038067;28;20029;-83
2023/11/27 00:49:28;;;;;;;0.40;0.40;;;;;;;7.58;100.00;100012.66;5021651;28;20090;-83
2023/11/27 00:51:54;;;;;;;0.40;0.40;;;;;;;7.60;100.00;100013.31;5021655;28;20051;-83
2023/11/27 00:54:19;;;;;;;0.40;0.40;;;;;;;7.65;100.00;100002.94;5037918;28;20032;-83
2023/11/27 00:56:46;;;;;;;0.50;0.50;;;;;;;7.70;100.00;100008.59;5038016;28;20498;-83
2023/11/27 00:59:11;;;;;;;0.40;0.40;;;;;;;7.67;100.00;100012.47;5038108;28;20025;-83
2023/11/27 01:01:37;;;;;;;0.40;0.40;;;;;;;7.59;100.00;100000.94;5021231;28;20037;-83
2023/11/27 01:04:02;;;;;;;0.40;0.40;;;;;;;7.53;100.00;100004.31;5021461;28;20460;-83
2023/11/27 01:06:28;;;;;;;0.40;0.40;;;;;;;7.40;100.00;100004.88;5037893;28;20068;-83
2023/11/27 01:08:54;;;;;;;0.40;0.40;;;;;;;7.29;100.00;100003.41;5037903;28;20029;-84
2023/11/27 01:11:19;;;;;;;0.40;0.40;;;;;;;7.27;100.00;100005.41;5037632;28;20395;-83
2023/11/27 01:13:45;;;;;;;0.40;0.40;;;;;;;7.31;100.00;100006.75;5020614;28;20037;-83
2023/11/27 01:16:10;;;;;;;0.40;0.40;;;;;;;7.38;100.00;100010.41;5053967;28;20025;-82
2023/11/27 01:18:36;;;;;;;0.40;0.40;;;;;;;7.41;100.00;100011.88;5037693;28;20060;-83
2023/11/27 01:21:02;;;;;;;0.40;0.40;;;;;;;7.39;100.00;100014.75;5037171;28;20040;-82
2023/11/27 01:23:28;;;;;;;0.40;0.40;;;;;;;7.37;100.00;100013.25;5021115;28;20032;-83
2023/11/27 01:25:53;;;;;;;0.40;0.40;;;;;;;7.42;100.00;100013.56;5053955;28;20104;-83
2023/11/27 01:28:19;;;;;;;0.40;0.40;;;;;;;7.42;100.00;100009.03;5021018;28;20390;-83
2023/11/27 01:30:44;;;;;;;0.40;0.40;;;;;;;7.46;100.00;100010.38;5037309;28;20095;-83
2023/11/27 01:33:12;;;;;;;0.40;0.40;;;;;;;7.45;100.00;100006.03;5020957;28;20040;-83
2023/11/27 01:35:37;;;;;;;0.40;0.40;;;;;;;7.47;100.00;100006.69;5037594;28;20041;-83
2023/11/27 01:38:03;;;;;;;0.40;0.40;;;;;;;7.47;100.00;100000.50;5037461;28;20055;-83
2023/11/27 01:40:29;;;;;;;0.40;0.40;;;;;;;7.47;100.00;100001.34;5037075;28;20028;-83
2023/11/27 01:42:54;;;;;;;0.40;0.40;;;;;;;7.45;100.00;100003.34;5037171;28;20037;-83
2023/11/27 01:45:20;;;;;;;0.40;0.40;;;;;;;7.36;100.00;99996.38;5020730;28;20033;-83
2023/11/27 01:47:46;;;;;;;0.40;0.40;;;;;;;7.27;100.00;100003.56;5037003;28;20028;-83
2023/11/27 01:50:12;;;;;;;0.40;0.40;;;;;;;7.29;100.00;100000.75;5020585;28;20036;-84
2023/11/27 01:52:39;;;;;;;0.40;0.40;;;;;;;7.38;100.00;99999.72;5053139;28;20036;-83
2023/11/27 01:55:06;;;;;;;0.40;0.40;;;;;;;7.43;100.00;99997.31;5020470;28;20122;-83
2023/11/27 01:57:32;;;;;;;0.40;0.40;;;;;;;7.45;100.00;99986.47;5036841;28;20041;-83
2023/11/27 01:59:58;;;;;;;0.40;0.40;;;;;;;7.47;100.00;99989.81;5020288;28;20029;-82
2023/11/27 02:02:24;;;;;;;0.43;0.43;;;;;;;7.43;100.00;99980.44;5036823;28;20139;-82
2023/11/27 02:04:51;;;;;;;0.40;0.40;;;;;;;7.40;100.00;99995.00;5036663;28;20124;-83
2023/11/27 02:07:16;;;;;;;0.40;0.40;;;;;;;7.36;100.00;99988.34;5020257;28;20029;-83
2023/11/27 02:09:42;;;;;;;0.47;0.47;;;;;;;7.36;100.00;99971.47;5053209;28;20029;-83
2023/11/27 02:12:08;;;;;;;0.50;0.50;;;;;;;7.46;100.00;99988.13;5020325;28;20067;-83
2023/11/27 02:14:33;;;;;;;0.50;0.50;;;;;;;7.49;100.00;99993.97;5052742;28;20460;-83
2023/11/27 02:16:59;;;;;;;0.40;0.40;;;;;;;7.45;100.00;99987.28;5052999;28;20032;-83
2023/11/27 02:19:24;;;;;;;0.40;0.40;;;;;;;7.43;100.00;99996.50;5019987;28;20063;-83
2023/11/27 02:21:50;;;;;;;0.40;0.40;;;;;;;7.31;100.00;99992.56;5036305;28;20029;-83
2023/11/27 02:24:16;;;;;;;0.40;0.40;;;;;;;7.25;100.00;99994.91;5036389;28;20033;-83
2023/11/27 02:26:42;;;;;;;0.40;0.40;;;;;;;7.22;100.00;99999.75;5035454;28;20094;-83
2023/11/27 02:29:08;;;;;;;0.40;0.40;;;;;;;7.18;100.00;99988.59;5019898;28;20036;-83
2023/11/27 02:31:34;;;;;;;0.40;0.40;;;;;;;7.17;100.00;99994.09;5052667;28;20032;-83
2023/11/27 02:33:59;;;;;;;0.40;0.40;;;;;;;7.18;100.00;99985.91;5019787;28;20032;-83
2023/11/27 02:36:26;;;;;;;0.40;0.40;;;;;;;7.21;100.00;99985.56;5036323;28;20068;-83
2023/11/27 02:38:52;;;;;;;0.40;0.40;;;;;;;7.20;100.00;99977.72;5052779;28;20502;-83
2023/11/27 02:41:18;;;;;;;0.45;0.45;;;;;;;7.12;100.00;99975.06;5035965;28;20052;-83
2023/11/27 02:43:44;;;;;;;0.40;0.40;;;;;;;7.10;100.00;99982.44;5019834;28;20464;-83
2023/11/27 02:46:09;;;;;;;0.50;0.50;;;;;;;7.10;100.00;99982.44;5052899;28;20063;-83
2023/11/27 02:48:35;;;;;;;0.40;0.40;;;;;;;7.10;100.00;99987.78;5003362;28;20094;-83
2023/11/27 02:51:04;;;;;;;0.40;0.40;;;;;;;7.04;100.00;99986.63;5019604;28;20090;-83
2023/11/27 02:53:31;;;;;;;0.40;0.40;;;;;;;7.11;100.00;99979.56;5036401;28;20120;-83
2023/11/27 02:55:57;;;;;;;0.40;0.40;;;;;;;7.14;100.00;99975.72;5052140;28;20029;-83
2023/11/27 02:58:22;;;;;;;0.40;0.40;;;;;;;7.16;100.00;99976.41;5053319;28;20102;-84
2023/11/27 03:00:48;;;;;;;0.40;0.40;;;;;;;7.14;100.00;99981.91;5052178;28;20376;-84
2023/11/27 03:03:14;;;;;;;0.40;0.40;;;;;;;7.20;100.00;99975.06;5035843;28;20040;-83
2023/11/27 03:05:39;;;;;;;0.40;0.40;;;;;;;7.27;100.00;99984.03;5019286;28;20037;-83
2023/11/27 03:08:05;;;;;;;0.40;0.40;;;;;;;7.31;100.00;99974.66;5052065;28;20085;-82
2023/11/27 03:10:30;;;;;;;0.40;0.40;;;;;;;7.39;100.00;99971.97;5052056;28;20029;-82
2023/11/27 03:12:56;;;;;;;0.45;0.45;;;;;;;7.42;100.00;99976.94;5019465;28;20035;-83
2023/11/27 03:15:22;;;;;;;0.40;0.40;;;;;;;7.47;100.00;99971.91;5036235;28;20075;-83
2023/11/27 03:17:47;;;;;;;0.40;0.40;;;;;;;7.51;100.00;99966.22;5035414;28;20488;-83
2023/11/27 03:20:13;;;;;;;0.50;0.50;;;;;;;7.54;100.00;99964.03;5052256;28;20384;-83
2023/11/27 03:22:43;;;;;;;0.40;0.40;;;;;;;7.53;100.00;99962.34;5035736;28;20044;-83
2023/11/27 03:25:09;;;;;;;0.40;0.40;;;;;;;7.53;100.00;99956.16;5020021;28;20087;-83
2023/11/27 03:27:35;;;;;;;0.40;0.40;;;;;;;7.55;100.00;99962.19;5035672;28;20033;-82
2023/11/27 03:30:03;;;;;;;0.40;0.40;;;;;;;7.54;100.00;99963.19;5035621;28;20029;-83
2023/11/27 03:32:30;;;;;;;0.40;0.40;;;;;;;7.50;100.00;99952.00;5035330;28;20032;-82
2023/11/27 03:34:58;;;;;;;0.40;0.40;;;;;;;7.50;100.00;99954.69;5035888;28;20037;-82
2023/11/27 03:37:23;;;;;;;0.40;0.40;;;;;;;7.53;100.00;99958.84;5053415;28;20028;-83
2023/11/27 03:39:49;;;;;;;0.40;0.40;;;;;;;7.50;100.00;99949.34;5023045;28;20429;-83
2023/11/27 03:42:15;;;;;;;0.40;0.40;;;;;;;7.56;100.00;99953.97;5039421;28;20420;-83
2023/11/27 03:44:40;;;;;;;0.40;0.40;;;;;;;7.59;100.00;99950.09;5039487;28;20037;-83
2023/11/27 03:47:06;;;;;;;0.40;0.40;;;;;;;7.59;100.00;99956.28;5055546;28;20083;-83
2023/11/27 03:49:31;;;;;;;0.40;0.40;;;;;;;7.54;100.00;99953.34;5055921;28;20391;-83
2023/11/27 03:51:57;;;;;;;0.40;0.40;;;;;;;7.59;100.00;99955.47;5055465;28;20115;-83
2023/11/27 03:54:23;;;;;;;0.40;0.40;;;;;;;7.60;100.00;99954.47;5056896;28;20379;-83
2023/11/27 03:56:49;;;;;;;0.40;0.40;;;;;;;7.61;100.00;99956.13;5039260;28;20158;-83
2023/11/27 03:59:15;;;;;;;0.40;0.40;;;;;;;7.59;100.00;99948.25;5055595;28;20025;-83
2023/11/27 04:01:41;;;;;;;0.40;0.40;;;;;;;7.61;100.00;99946.25;5055361;28;20036;-83
2023/11/27 04:04:07;;;;;;;0.40;0.40;;;;;;;7.64;100.00;99950.41;5056730;28;20391;-84
2023/11/27 04:06:33;;;;;;;0.40;0.40;;;;;;;7.66;100.00;99948.41;5056404;28;20063;-84
2023/11/27 04:08:59;;;;;;;0.40;0.40;;;;;;;7.68;100.00;99949.06;5038682;28;20125;-83
2023/11/27 04:11:27;;;;;;;0.40;0.40;;;;;;;7.65;100.00;99936.88;5039099;28;20067;-83
2023/11/27 04:13:54;;;;;;;0.40;0.40;;;;;;;7.72;100.00;99943.16;5039284;28;20029;-83
2023/11/27 04:16:20;;;;;;;0.40;0.40;;;;;;;7.75;100.00;99947.31;5055351;28;20021;-83
2023/11/27 04:18:46;;;;;;;0.40;0.40;;;;;;;7.76;100.00;99946.34;5055400;28;20044;-83
2023/11/27 04:21:11;;;;;;;0.40;0.40;;;;;;;7.80;100.00;99950.31;5038541;28;20035;-82
2023/11/27 04:23:37;;;;;;;0.40;0.40;;;;;;;7.83;100.00;99952.66;5055179;28;20379;-83
2023/11/27 04:26:03;;;;;;;0.40;0.40;;;;;;;7.85;100.00;99947.94;5055278;28;20036;-83
2023/11/27 04:28:28;;;;;;;0.40;0.40;;;;;;;7.84;100.00;99953.47;5022148;28;20044;-83
2023/11/27 04:30:54;;;;;;;0.40;0.40;;;;;;;7.89;100.00;99954.59;5038567;28;20436;-83
2023/11/27 04:33:20;;;;;;;0.40;0.40;;;;;;;7.86;100.00;99964.84;5038566;28;20067;-83
2023/11/27 04:35:46;;;;;;;0.40;0.40;;;;;;;7.88;100.00;99963.63;5054985;28;20033;-83
2023/11/27 04:38:11;;;;;;;0.40;0.40;;;;;;;7.90;100.00;99966.97;5038500;28;20391;-83
2023/11/27 04:40:37;;;;;;;0.40;0.40;;;;;;;7.94;100.00;99970.13;5021709;28;20064;-83
2023/11/27 04:43:03;;;;;;;0.40;0.40;;;;;;;7.92;100.00;99958.78;5054494;28;20040;-83
2023/11/27 04:45:29;;;;;;;0.40;0.40;;;;;;;8.01;100.00;99971.06;5038189;28;20494;-83
2023/11/27 04:47:54;;;;;;;0.40;0.40;;;;;;;8.01;100.00;99971.06;5054235;28;20029;-82
2023/11/27 04:50:21;;;;;;;0.40;0.40;;;;;;;8.03;100.00;99968.22;5037576;28;20041;-83
2023/11/27 04:52:46;;;;;;;0.40;0.40;;;;;;;8.01;100.00;99959.53;5055505;28;20056;-83
2023/11/27 04:55:12;;;;;;;0.40;0.40;;;;;;;8.01;100.00;99962.22;5038101;28;20387;-83
2023/11/27 04:57:38;;;;;;;0.40;0.40;;;;;;;8.01;100.00;99964.91;5054780;28;20040;-82
2023/11/27 05:00:05;;;;;;;0.40;0.40;;;;;;;8.00;100.00;99965.91;5055629;28;20039;-83
2023/11/27 05:02:32;;;;;;;0.40;0.40;;;;;;;8.01;100.00;99978.28;5038278;28;20036;-83
2023/11/27 05:04:57;;;;;;;0.40;0.40;;;;;;;7.99;100.00;99970.44;5055522;28;20044;-83
2023/11/27 05:07:23;;;;;;;0.50;0.50;;;;;;;8.02;100.00;99971.91;5037478;28;20384;-83
2023/11/27 05:09:49;;;;;;;0.40;0.40;;;;;;;8.03;100.00;99976.25;5054266;28;20159;-83
2023/11/27 05:12:14;;;;;;;0.40;0.40;;;;;;;8.00;100.00;99966.75;5037707;28;20104;-83
2023/11/27 05:14:43;;;;;;;0.40;0.40;;;;;;;8.06;100.00;99967.88;5021574;28;20033;-83
2023/11/27 05:17:09;;;;;;;0.40;0.40;;;;;;;8.07;100.00;99970.38;5054161;28;20028;-83
2023/11/27 05:19:35;;;;;;;0.40;0.40;;;;;;;8.09;100.00;99973.69;5020820;28;20036;-83
2023/11/27 05:22:04;;;;;;;0.40;0.40;;;;;;;8.10;100.00;99974.53;5021234;28;20029;-84
2023/11/27 05:24:30;;;;;;;0.40;0.40;;;;;;;8.10;100.00;99975.38;5037443;28;20502;-83
2023/11/27 05:26:57;;;;;;;0.40;0.40;;;;;;;8.08;100.00;99972.03;5037571;28;20041;-83
2023/11/27 05:29:23;;;;;;;0.40;0.40;;;;;;;8.09;100.00;99972.84;5036932;28;20028;-83
2023/11/27 05:31:49;;;;;;;0.40;0.40;;;;;;;8.10;100.00;99974.53;5053675;28;20485;-83
2023/11/27 05:34:14;;;;;;;0.40;0.40;;;;;;;8.11;100.00;99982.38;5020844;28;20029;-83
2023/11/27 05:36:40;;;;;;;0.40;0.40;;;;;;;8.11;100.00;99982.38;5053522;28;20028;-83
2023/11/27 05:39:05;;;;;;;0.40;0.40;;;;;;;8.10;100.00;99983.41;5053845;28;20128;-83
2023/11/27 05:41:31;;;;;;;0.40;0.40;;;;;;;8.12;100.00;99978.72;5037558;28;20025;-83
2023/11/27 05:43:57;;;;;;;0.40;0.40;;;;;;;8.12;100.00;99983.22;5020403;28;20116;-83
2023/11/27 05:46:23;;;;;;;0.40;0.40;;;;;;;8.07;100.00;99975.72;5037001;28;20416;-84
2023/11/27 05:48:48;;;;;;;0.40;0.40;;;;;;;8.09;100.00;99979.03;5037082;28;20483;-83
2023/11/27 05:51:16;;;;;;;0.50;0.50;;;;;;;8.15;100.00;99989.06;5021191;28;20044;-82
2023/11/27 05:53:42;;;;;;;0.40;0.40;;;;;;;8.10;100.00;99980.72;5021066;28;20038;-83
2023/11/27 05:56:08;;;;;;;0.43;0.43;;;;;;;8.10;100.00;99982.56;5020509;28;20044;-83
2023/11/27 05:58:35;;;;;;;0.40;0.40;;;;;;;8.11;100.00;99986.91;5036850;28;20047;-83
2023/11/27 06:01:01;;;;;;;0.43;0.43;;;;;;;8.06;100.00;99978.56;5036604;28;20421;-83
2023/11/27 06:03:27;;;;;;;0.40;0.40;;;;;;;8.09;100.00;99988.94;5053264;28;20025;-83
2023/11/27 06:05:53;;;;;;;0.40;0.40;;;;;;;8.04;100.00;99985.94;5052967;28;20480;-82
2023/11/27 06:08:20;;;;;;;0.40;0.40;;;;;;;7.95;100.00;99990.53;5036770;28;20036;-83
2023/11/27 06:10:46;;;;;;;0.40;0.40;;;;;;;7.95;100.00;99987.84;5036794;28;20123;-83
2023/11/27 06:13:12;;;;;;;0.40;0.40;;;;;;;7.92;100.00;99988.22;5053115;28;20025;-83
2023/11/27 06:15:46;;;;;;;0.40;0.40;;;;;;;7.94;100.00;99991.56;5036344;28;20163;-82
2023/11/27 06:18:14;;;;;;;0.40;0.40;;;;;;;7.95;100.00;99989.72;5053127;28;20025;-83
2023/11/27 06:20:40;;;;;;;0.40;0.40;;;;;;;7.93;100.00;99987.19;5037055;28;20524;-83
2023/11/27 06:23:06;;;;;;;0.40;0.40;;;;;;;7.86;100.00;99992.44;5036566;28;20090;-83
2023/11/27 06:25:35;;;;;;;0.50;0.50;;;;;;;7.75;100.00;99984.78;5020017;28;20112;-83
2023/11/27 06:28:02;;;;;;;0.40;0.40;;;;;;;7.64;100.00;99979.84;5052915;28;20037;-83
2023/11/27 06:30:28;;;;;;;0.40;0.40;;;;;;;7.58;100.00;99980.56;5053033;28;20476;-83
2023/11/27 06:32:54;;;;;;;0.40;0.40;;;;;;;7.58;100.00;99989.41;5036463;28;20116;-83
2023/11/27 06:35:19;;;;;;;0.40;0.40;;;;;;;7.60;100.00;99986.56;5036165;28;20033;-83
2023/11/27 06:37:45;;;;;;;0.40;0.40;;;;;;;7.60;100.00;99984.72;5052751;28;20511;-83
2023/11/27 06:40:11;;;;;;;0.43;0.43;;;;;;;7.56;100.00;99979.91;5036256;28;20464;-83
2023/11/27 06:42:38;;;;;;;0.40;0.40;;;;;;;7.53;100.00;99993.63;5036340;28;20032;-83
2023/11/27 06:45:05;;;;;;;0.40;0.40;;;;;;;7.44;100.00;99991.00;5019729;28;20035;-83
2023/11/27 06:47:30;;;;;;;0.45;0.45;;;;;;;7.38;100.00;99989.03;5052207;28;20025;-82
2023/11/27 06:49:56;;;;;;;0.40;0.40;;;;;;;7.29;100.00;99994.56;5036044;28;20033;-83
2023/11/27 06:52:22;;;;;;;0.40;0.40;;;;;;;7.39;100.00;99988.00;5019606;28;20041;-83
2023/11/27 06:54:48;;;;;;;0.40;0.40;;;;;;;7.44;100.00;99988.31;5019634;28;20036;-83
2023/11/27 06:57:13;;;;;;;0.40;0.40;;;;;;;7.31;100.00;99984.53;5035896;28;20387;-83
2023/11/27 06:59:39;;;;;;;0.50;0.50;;;;;;;7.13;100.00;99993.63;5051861;28;20067;-83
2023/11/27 07:02:05;;;;;;;0.40;0.40;;;;;;;7.01;100.00;99994.97;5019545;28;20372;-83
2023/11/27 07:04:31;;;;;;;0.40;0.40;;;;;;;7.02;100.00;99992.16;5035903;28;20024;-83
2023/11/27 07:06:56;;;;;;;0.40;0.40;;;;;;;7.07;100.00;99994.31;5036047;28;20045;-83
2023/11/27 07:09:25;;;;;;;0.40;0.40;;;;;;;7.01;100.00;99995.84;5036644;28;20033;-84
2023/11/27 07:11:51;;;;;;;0.40;0.40;;;;;;;7.00;100.00;100001.34;5052940;28;20029;-82
2023/11/27 07:14:16;;;;;;;0.40;0.40;;;;;;;6.99;100.00;100003.19;5040088;28;20032;-83
2023/11/27 07:16:42;;;;;;;0.50;0.50;;;;;;;7.05;100.00;100002.50;5056484;28;20102;-83
2023/11/27 07:19:08;;;;;;;0.40;0.40;;;;;;;7.06;100.00;99997.97;5022531;28;20033;-83
2023/11/27 07:21:34;;;;;;;0.40;0.40;;;;;;;7.12;100.00;100005.31;5022128;28;20032;-83
2023/11/27 07:23:59;;;;;;;0.40;0.40;;;;;;;7.19;100.00;100010.81;5023432;28;20028;-83
2023/11/27 07:26:26;;;;;;;0.40;0.40;;;;;;;7.22;100.00;100013.13;5023880;28;20039;-83
2023/11/27 07:28:53;;;;;;;0.40;0.40;;;;;;;7.25;100.00;100018.97;5039366;28;20085;-83
2023/11/27 07:31:19;;;;;;;0.40;0.40;;;;;;;7.31;100.00;100017.47;5023525;28;20045;-84
2023/11/27 07:33:47;;;;;;;0.40;0.40;;;;;;;7.38;100.00;100031.81;5039651;28;20036;-84
2023/11/27 07:36:13;;;;;;;0.40;0.40;;;;;;;7.36;100.00;100025.78;5039691;28;20032;-83
2023/11/27 07:38:40;;;;;;;0.40;0.40;;;;;;;7.38;100.00;100023.78;5039183;28;20032;-84
2023/11/27 07:41:07;;;;;;;0.43;0.43;;;;;;;7.40;100.00;100023.59;5055595;28;20403;-83
2023/11/27 07:43:33;;;;;;;0.40;0.40;;;;;;;7.39;100.00;100025.44;5022963;28;20033;-83
2023/11/27 07:45:59;;;;;;;0.40;0.40;;;;;;;7.35;100.00;100008.06;5039083;28;20139;-83
2023/11/27 07:48:24;;;;;;;0.40;0.40;;;;;;;7.35;100.00;100024.09;5055537;28;20117;-83
2023/11/27 07:50:50;;;;;;;0.40;0.40;;;;;;;7.30;100.00;100023.78;5039390;28;20041;-84
2023/11/27 07:53:19;;;;;;;0.40;0.40;;;;;;;7.34;100.00;100035.00;5038994;28;20028;-83
2023/11/27 07:55:46;;;;;;;0.40;0.40;;;;;;;7.31;100.00;100019.31;5006393;28;20044;-83
2023/11/27 07:58:14;;;;;;;0.40;0.40;;;;;;;7.34;100.00;100035.81;5055291;28;20391;-83
2023/11/27 08:00:40;;;;;;;0.40;0.40;;;;;;;7.43;100.00;100041.97;5055415;28;20025;-83
2023/11/27 08:03:06;;;;;;;0.50;0.50;;;;;;;7.42;100.00;100033.13;5055538;28;20059;-83
2023/11/27 08:05:32;;;;;;;0.50;0.50;;;;;;;7.44;100.00;100044.50;5022662;28;20083;-83
2023/11/27 08:07:58;;;;;;;0.40;0.40;;;;;;;7.46;100.00;100045.16;5038693;28;20368;-83
2023/11/27 08:10:24;;;;;;;0.40;0.40;;;;;;;7.46;100.00;100046.97;5022532;28;20055;-83
2023/11/27 08:12:50;;;;;;;0.40;0.40;;;;;;;7.48;100.00;100043.13;5022372;28;20064;-82
2023/11/27 08:15:19;;;;;;;0.40;0.40;;;;;;;7.52;100.00;100043.63;5038947;28;20395;-83
2023/11/27 08:17:45;;;;;;;0.40;0.40;;;;;;;7.58;100.00;100050.13;5022670;28;20032;-83
2023/11/27 08:20:12;;;;;;;0.40;0.40;;;;;;;7.58;100.00;100055.47;5054769;28;20112;-83
2023/11/27 08:22:38;;;;;;;0.45;0.45;;;;;;;7.58;100.00;100058.13;5054576;28;20494;-83
2023/11/27 08:25:03;;;;;;;0.40;0.40;;;;;;;7.46;100.00;100055.00;5023147;28;20029;-83
2023/11/27 08:27:30;;;;;;;0.40;0.40;;;;;;;7.51;100.00;100060.66;5038157;28;20487;-84
2023/11/27 08:29:55;;;;;;;0.40;0.40;;;;;;;7.56;100.00;100066.34;5056125;28;20037;-84
2023/11/27 08:32:21;;;;;;;0.40;0.40;;;;;;;7.65;100.00;100073.34;5021615;28;20552;-83
2023/11/27 08:34:49;;;;;;;0.40;0.40;;;;;;;7.72;100.00;100068.09;5021679;28;20389;-84
2023/11/27 08:37:16;;;;;;;0.50;0.50;;;;;;;7.77;100.00;100087.16;5038888;28;20075;-84
2023/11/27 08:39:43;;;;;;;0.40;0.40;;;;;;;7.80;100.00;100086.78;5038617;28;20040;-83
2023/11/27 08:42:09;;;;;;;0.50;0.50;;;;;;;7.78;100.00;100099.53;5054949;28;20035;-83
2023/11/27 08:44:34;;;;;;;0.40;0.40;;;;;;;7.77;100.00;100099.69;5042292;28;20037;-83
2023/11/27 08:47:00;;;;;;;0.40;0.40;;;;;;;7.74;100.00;100100.06;5058835;28;20092;-83
2023/11/27 08:49:25;;;;;;;0.50;0.50;;;;;;;7.75;100.00;100094.50;5040338;28;20454;-83
2023/11/27 08:51:51;;;;;;;0.50;0.50;;;;;;;7.86;100.00;100093.31;5054466;28;20056;-83
2023/11/27 08:54:17;;;;;;;0.50;0.50;;;;;;;7.89;100.00;100104.50;5021633;28;20388;-83
2023/11/27 08:56:43;;;;;;;0.40;0.40;;;;;;;7.86;100.00;100096.00;5021023;28;20052;-83
2023/11/27 08:59:11;;;;;;;0.47;0.47;;;;;;;7.94;100.00;100104.00;5021873;28;20064;-83
2023/11/27 09:01:40;;;;;;;0.50;0.50;;;;;;;7.95;100.00;100100.28;5037033;28;20460;-83
2023/11/27 09:04:06;;;;;;;0.40;0.40;;;;;;;8.00;100.00;100110.47;5037564;28;20036;-81
2023/11/27 09:06:32;;;;;;;0.45;0.45;;;;;;;8.06;100.00;100120.47;5054008;28;20021;-82
2023/11/27 09:08:59;;;;;;;0.50;0.50;;;;;;;8.20;100.00;100114.38;5053997;28;20045;-82
2023/11/27 09:11:25;;;;;;;0.50;0.50;;;;;;;8.31;100.00;100124.69;5054178;28;20079;-82
2023/11/27 09:13:51;;;;;;;0.40;0.40;;;;;;;8.42;100.00;100110.09;5021206;28;20037;-82
2023/11/27 09:16:16;;;;;;;0.40;0.40;;;;;;;8.61;100.00;100127.56;5037685;28;20087;-82
2023/11/27 09:18:42;;;;;;;0.50;0.50;;;;;;;8.69;100.00;100119.44;5020930;28;20036;-82
2023/11/27 09:21:09;;;;;;;0.40;0.40;;;;;;;8.61;100.00;100127.56;5037556;28;20364;-82
2023/11/27 09:23:35;;;;;;;0.40;0.40;;;;;;;8.47;100.00;100131.00;5021135;28;20036;-83
2023/11/27 09:26:00;;;;;;;0.40;0.40;;;;;;;8.40;100.00;100128.19;5021122;28;20040;-83
2023/11/27 09:28:27;;;;;;;0.40;0.40;;;;;;;8.45;100.00;100131.19;5053548;28;20155;-82
2023/11/27 09:30:53;;;;;;;0.40;0.40;;;;;;;8.46;100.00;100137.34;5053698;28;20037;-81
2023/11/27 09:33:18;;;;;;;0.40;0.40;;;;;;;8.37;100.00;100137.38;5037356;28;20098;-82
2023/11/27 09:35:44;;;;;;;0.40;0.40;;;;;;;8.33;100.00;100146.75;5059889;28;20033;-83
2023/11/27 09:38:10;;;;;;;0.40;0.40;;;;;;;8.32;100.00;100147.78;5036675;28;20033;-84
2023/11/27 09:40:40;;;;;;;0.40;0.40;;;;;;;8.44;100.00;100156.31;5059529;28;20025;-85
2023/11/27 09:43:05;;;;;;;0.40;0.40;;;;;;;8.63;100.00;100154.19;5021594;28;20479;-85
2023/11/27 09:45:32;;;;;;;0.50;0.50;;;;;;;8.82;100.00;100164.41;5037722;28;20036;-84
2023/11/27 09:47:57;;;;;;;0.50;0.50;;;;;;;9.00;100.00;100166.81;5037823;28;20119;-85
2023/11/27 09:50:24;;;;;;;0.50;0.50;;;;;;;8.98;100.00;100166.16;5054585;28;20532;-85
2023/11/27 09:52:54;;;;;;;0.40;0.40;;;;;;;8.81;100.00;100170.78;5038003;28;20483;-85
2023/11/27 09:55:20;;;;;;;0.40;0.40;;;;;;;8.63;100.00;100165.72;5021950;28;20052;-85
2023/11/27 09:57:48;;;;;;;0.40;0.40;;;;;;;8.49;100.00;100171.84;5037504;28;20068;-85
2023/11/27 10:00:18;;;;;;;0.50;0.50;;;;;;;8.53;100.00;100178.53;5037068;28;20060;-85
2023/11/27 10:02:47;;;;;;;0.40;0.40;;;;;;;8.76;100.00;100175.88;5053108;28;20029;-85
2023/11/27 10:05:24;;;;;;;0.50;0.50;;;;;;;9.16;100.00;100179.25;5036891;28;20525;-85
2023/11/27 10:07:51;;;;;;;0.50;0.50;;;;;;;9.72;100.00;100181.56;5052999;28;20031;-86
2023/11/27 10:10:25;;;;;;;0.50;0.50;;;;;;;10.23;100.00;100195.06;5036502;28;20041;-85
2023/11/27 10:13:04;;;;;;;0.50;0.50;;;;;;;10.76;100.00;100196.53;5038279;28;20033;-87
2023/11/27 10:15:34;;;;;;;0.40;0.40;;;;;;;10.88;100.00;100202.25;5050099;28;20041;-86
2023/11/27 10:18:00;;;;;;;0.50;0.50;;;;;;;11.64;100.00;100193.56;5052829;28;20443;-85
2023/11/27 10:20:26;;;;;;;0.50;0.50;;;;;;;11.96;100.00;100205.63;5053349;28;20107;-87
2023/11/27 10:22:53;;;;;;;0.40;0.40;;;;;;;12.11;100.00;100192.00;5052729;28;20541;-87
2023/11/27 10:25:23;;;;;;;0.43;0.43;;;;;;;11.84;100.00;100201.78;5052904;28;20017;-87
2023/11/27 10:28:01;;;;;;;0.50;0.50;;;;;;;11.77;100.00;100195.50;5020495;28;20033;-87
2023/11/27 10:30:30;;;;;;;0.40;0.40;;;;;;;11.72;100.00;100220.34;5052987;28;20045;-88
2023/11/27 10:32:59;;;;;;;0.40;0.40;;;;;;;11.69;100.00;100219.91;5052994;28;20028;-88
2023/11/27 10:35:32;;;;;;;0.40;0.40;;;;;;;11.74;100.00;100228.22;5020252;28;20029;-88
2023/11/27 10:37:58;;;;;;;0.45;0.45;;;;;;;11.90;100.00;100235.22;5020292;28;20036;-87
2023/11/27 10:40:26;;;;;;;0.50;0.50;;;;;;;11.79;100.00;100234.69;5036173;28;20079;-88
2023/11/27 10:43:01;;;;;;;0.50;0.50;;;;;;;12.00;100.00;100243.78;5052956;28;20076;-87
2023/11/27 10:45:30;;;;;;;0.50;0.50;;;;;;;12.51;100.00;100241.53;5021435;28;20368;-89
2023/11/27 10:47:56;;;;;;;1.40;0.70;;;;;;;12.20;100.00;100250.13;5035556;28;20079;-87
2023/11/27 10:50:23;;;;;;;0.77;0.77;;;;;;;11.24;100.00;100241.69;5019733;28;20033;-87
2023/11/27 10:52:50;;;;;;;1.83;0.90;;;;;;;11.23;100.00;100253.50;5019618;28;20391;-88
2023/11/27 10:55:19;;;;;;;1.38;0.80;;;;;;;11.21;100.00;100245.59;5052284;28;20033;-88
2023/11/27 10:57:49;;;;;;;1.52;0.70;;;;;;;10.68;100.00;100249.59;5035038;28;20056;-89
2023/11/27 11:00:28;;;;;;;1.65;0.70;;;;;;;10.13;100.00;100257.97;5036529;28;20035;-89
2023/11/27 11:03:00;;;;;;;1.25;1.15;;;;;;;9.71;100.00;100263.09;5052091;28;20029;-87
2023/11/27 11:05:32;;;;;;;1.88;0.70;;;;;;;9.75;100.00;100269.78;5019281;28;20029;-87
2023/11/27 11:07:58;;;;;;;0.55;0.55;;;;;;;9.74;100.00;100255.53;5036198;28;20043;-86
2023/11/27 11:10:27;;;;;;;1.05;0.65;;;;;;;9.81;100.00;100274.41;5035725;28;20036;-85
2023/11/27 11:12:56;;;;;;;1.13;0.70;;;;;;;9.95;100.00;100267.38;5035798;28;20074;-85
2023/11/27 11:15:34;;;;;;;0.60;0.60;;;;;;;10.16;100.00;100263.97;5035788;28;20033;-86
2023/11/27 11:18:10;;;;;;;0.60;0.60;;;;;;;10.34;100.00;100270.66;5018876;28;20086;-86
2023/11/27 11:20:43;;;;;;;0.68;0.68;;;;;;;10.24;100.00;100272.78;5035949;28;20029;-86
2023/11/27 11:23:17;;;;;;;3.53;0.70;;;;;;;10.12;100.00;100276.94;5036126;28;20029;-86
2023/11/27 11:25:50;;;;;;;1.08;0.70;;;;;;;9.80;100.00;100270.06;5052243;28;20091;-87